createdAt,value
2022-11-30T00:00:56.967Z,7.87
2022-11-30T00:01:57.057Z,7.97
2022-11-30T00:02:57.081Z,7.98
2022-11-30T00:03:56.954Z,7.82
2022-11-30T00:04:56.977Z,7.79
2022-11-30T00:05:56.940Z,7.87
2022-11-30T00:06:56.944Z,7.98
2022-11-30T00:07:57.006Z,7.85
2022-11-30T00:08:56.938Z,7.90
2022-11-30T00:09:56.928Z,7.83
2022-11-30T00:10:56.929Z,7.97
2022-11-30T00:11:56.921Z,7.97
2022-11-30T00:12:56.917Z,7.95
2022-11-30T00:13:56.919Z,7.95
2022-11-30T00:14:56.913Z,7.86
2022-11-30T00:15:56.911Z,7.85
2022-11-30T00:16:56.949Z,7.85
2022-11-30T00:17:56.899Z,7.80
2022-11-30T00:18:56.948Z,7.82
2022-11-30T00:19:56.887Z,7.82
2022-11-30T00:20:56.905Z,7.80
2022-11-30T00:21:56.880Z,7.93
2022-11-30T00:22:56.882Z,7.83
2022-11-30T00:23:56.886Z,7.89
2022-11-30T00:24:56.868Z,7.92
2022-11-30T00:25:56.864Z,7.80
2022-11-30T00:26:56.861Z,7.74
2022-11-30T00:27:56.854Z,7.74
2022-11-30T00:28:56.857Z,7.72
2022-11-30T00:29:56.854Z,7.80
2022-11-30T00:30:56.897Z,7.64
2022-11-30T00:31:56.840Z,7.69
2022-11-30T00:32:56.837Z,7.68
2022-11-30T00:33:56.829Z,7.52
2022-11-30T00:34:56.836Z,7.60
2022-11-30T00:35:56.835Z,7.72
2022-11-30T00:36:56.847Z,7.69
2022-11-30T00:37:56.813Z,7.58
2022-11-30T00:38:56.813Z,7.69
2022-11-30T00:39:56.810Z,7.75
2022-11-30T00:40:56.809Z,7.71
2022-11-30T00:41:56.800Z,7.72
2022-11-30T00:42:56.798Z,7.83
2022-11-30T00:43:56.791Z,7.85
2022-11-30T00:44:56.792Z,7.67
2022-11-30T00:45:56.858Z,7.74
2022-11-30T00:46:56.784Z,7.83
2022-11-30T00:47:56.772Z,7.97
2022-11-30T00:48:56.861Z,8.02
2022-11-30T00:49:56.762Z,7.85
2022-11-30T00:50:56.764Z,7.82
2022-11-30T00:51:56.759Z,7.82
2022-11-30T00:52:56.779Z,7.87
2022-11-30T00:53:56.749Z,7.75
2022-11-30T00:54:56.750Z,7.74
2022-11-30T00:55:56.741Z,7.63
2022-11-30T00:56:56.740Z,7.71
2022-11-30T00:57:56.735Z,7.69
2022-11-30T00:58:56.731Z,7.71
2022-11-30T00:59:56.731Z,7.68
2022-11-30T01:00:56.779Z,7.75
2022-11-30T01:01:56.715Z,7.69
2022-11-30T01:02:56.721Z,7.77
2022-11-30T01:03:56.710Z,7.77
2022-11-30T01:04:56.704Z,7.85
2022-11-30T01:05:56.703Z,7.82
2022-11-30T01:06:56.699Z,7.61
2022-11-30T01:07:56.744Z,7.58
2022-11-30T01:08:56.716Z,7.57
2022-11-30T01:09:56.689Z,7.61
2022-11-30T01:10:56.684Z,7.55
2022-11-30T01:11:56.676Z,7.53
2022-11-30T01:12:56.677Z,7.61
2022-11-30T01:13:56.670Z,7.50
2022-11-30T01:14:56.674Z,7.49
2022-11-30T01:15:56.722Z,7.60
2022-11-30T01:16:56.658Z,7.50
2022-11-30T01:17:56.649Z,7.52
2022-11-30T01:18:56.701Z,7.55
2022-11-30T01:19:56.641Z,7.52
2022-11-30T01:20:56.651Z,7.72
2022-11-30T01:21:56.638Z,7.74
2022-11-30T01:22:56.634Z,7.72
2022-11-30T01:23:56.624Z,7.55
2022-11-30T01:24:56.653Z,7.43
2022-11-30T01:25:56.616Z,7.52
2022-11-30T01:26:56.620Z,7.57
2022-11-30T01:27:56.610Z,7.49
2022-11-30T01:28:56.613Z,7.50
2022-11-30T01:29:56.601Z,7.55
2022-11-30T01:30:56.645Z,7.67
2022-11-30T01:31:56.597Z,7.55
2022-11-30T01:32:56.589Z,7.71
2022-11-30T01:33:56.583Z,7.74
2022-11-30T01:34:56.584Z,7.77
2022-11-30T01:35:56.578Z,7.85
2022-11-30T01:36:56.575Z,7.74
2022-11-30T01:37:56.568Z,7.72
2022-11-30T01:38:56.569Z,7.75
2022-11-30T01:39:56.560Z,7.74
2022-11-30T01:40:56.580Z,7.87
2022-11-30T01:41:56.552Z,7.77
2022-11-30T01:42:56.552Z,7.79
2022-11-30T01:43:56.542Z,7.72
2022-11-30T01:44:56.544Z,7.71
2022-11-30T01:45:56.589Z,7.77
2022-11-30T01:46:56.533Z,7.71
2022-11-30T01:47:56.529Z,7.79
2022-11-30T01:48:56.526Z,7.55
2022-11-30T01:49:56.518Z,7.61
2022-11-30T01:50:56.516Z,7.57
2022-11-30T01:51:56.512Z,7.58
2022-11-30T01:52:56.508Z,7.64
2022-11-30T01:53:56.505Z,7.71
2022-11-30T01:54:56.500Z,7.75
2022-11-30T01:55:56.497Z,7.60
2022-11-30T01:56:56.515Z,7.50
2022-11-30T01:57:56.482Z,7.52
2022-11-30T01:58:56.481Z,7.64
2022-11-30T01:59:56.475Z,7.55
2022-11-30T02:00:56.578Z,7.43
2022-11-30T02:01:56.465Z,7.49
2022-11-30T02:02:56.533Z,7.50
2022-11-30T02:03:56.458Z,7.53
2022-11-30T02:04:56.466Z,7.46
2022-11-30T02:05:56.450Z,7.55
2022-11-30T02:06:56.451Z,7.53
2022-11-30T02:07:56.570Z,7.50
2022-11-30T02:08:56.443Z,7.57
2022-11-30T02:09:56.437Z,7.52
2022-11-30T02:10:56.439Z,7.61
2022-11-30T02:11:56.426Z,7.55
2022-11-30T02:12:56.453Z,7.69
2022-11-30T02:13:56.426Z,7.58
2022-11-30T02:14:56.419Z,7.48
2022-11-30T02:15:56.478Z,7.55
2022-11-30T02:16:56.408Z,7.49
2022-11-30T02:17:56.402Z,7.63
2022-11-30T02:18:56.401Z,7.55
2022-11-30T02:19:56.398Z,7.68
2022-11-30T02:20:56.393Z,7.58
2022-11-30T02:21:56.385Z,7.46
2022-11-30T02:22:56.383Z,7.53
2022-11-30T02:23:56.389Z,7.68
2022-11-30T02:24:56.381Z,7.61
2022-11-30T02:25:56.365Z,7.57
2022-11-30T02:26:56.371Z,7.60
2022-11-30T02:27:56.366Z,7.71
2022-11-30T02:28:56.386Z,7.55
2022-11-30T02:29:56.352Z,7.49
2022-11-30T02:30:56.390Z,7.46
2022-11-30T02:31:56.343Z,7.49
2022-11-30T02:32:56.357Z,7.57
2022-11-30T02:33:56.335Z,7.57
2022-11-30T02:34:56.337Z,7.43
2022-11-30T02:35:56.322Z,7.49
2022-11-30T02:36:56.330Z,7.55
2022-11-30T02:37:56.319Z,7.60
2022-11-30T02:38:56.317Z,7.50
2022-11-30T02:39:56.309Z,7.53
2022-11-30T02:40:56.303Z,7.52
2022-11-30T02:41:56.298Z,7.52
2022-11-30T02:42:56.298Z,7.55
2022-11-30T02:43:56.290Z,7.46
2022-11-30T02:44:56.313Z,7.52
2022-11-30T02:45:56.367Z,7.46
2022-11-30T02:46:56.284Z,7.43
2022-11-30T02:47:56.275Z,7.45
2022-11-30T02:48:56.277Z,7.50
2022-11-30T02:49:56.264Z,7.39
2022-11-30T02:50:56.269Z,7.64
2022-11-30T02:51:56.259Z,7.58
2022-11-30T02:52:56.260Z,7.72
2022-11-30T02:53:56.248Z,7.80
2022-11-30T02:54:56.261Z,7.72
2022-11-30T02:55:56.245Z,7.79
2022-11-30T02:56:56.236Z,7.68
2022-11-30T02:57:56.231Z,7.63
2022-11-30T02:58:56.233Z,7.61
2022-11-30T02:59:56.224Z,7.55
2022-11-30T03:00:56.255Z,7.57
2022-11-30T03:01:56.290Z,7.71
2022-11-30T03:02:56.288Z,7.72
2022-11-30T03:03:56.212Z,7.75
2022-11-30T03:04:56.207Z,7.57
2022-11-30T03:05:56.198Z,7.72
2022-11-30T03:06:56.195Z,7.69
2022-11-30T03:07:56.305Z,7.67
2022-11-30T03:08:56.188Z,7.69
2022-11-30T03:09:56.179Z,7.77
2022-11-30T03:10:56.183Z,7.77
2022-11-30T03:11:56.177Z,7.75
2022-11-30T03:12:56.172Z,7.77
2022-11-30T03:13:56.162Z,7.79
2022-11-30T03:14:56.169Z,7.72
2022-11-30T03:15:56.191Z,7.90
2022-11-30T03:16:56.177Z,7.83
2022-11-30T03:17:56.150Z,7.80
2022-11-30T03:18:56.198Z,7.72
2022-11-30T03:19:56.135Z,7.55
2022-11-30T03:20:56.145Z,7.49
2022-11-30T03:21:56.137Z,7.61
2022-11-30T03:22:56.136Z,7.43
2022-11-30T03:23:56.129Z,7.50
2022-11-30T03:24:56.127Z,7.52
2022-11-30T03:25:56.114Z,7.63
2022-11-30T03:26:56.118Z,7.60
2022-11-30T03:27:56.107Z,7.53
2022-11-30T03:28:56.105Z,7.49
2022-11-30T03:29:56.104Z,7.52
2022-11-30T03:30:56.119Z,7.52
2022-11-30T03:31:56.100Z,7.53
2022-11-30T03:32:56.110Z,7.53
2022-11-30T03:33:56.088Z,7.42
2022-11-30T03:34:56.081Z,7.43
2022-11-30T03:35:56.074Z,7.43
2022-11-30T03:36:56.071Z,7.45
2022-11-30T03:37:56.072Z,7.45
2022-11-30T03:38:56.064Z,7.40
2022-11-30T03:39:58.396Z,7.42
2022-11-30T03:40:56.060Z,7.42
2022-11-30T03:41:56.048Z,7.35
2022-11-30T03:42:56.047Z,7.42
2022-11-30T03:43:56.041Z,7.45
2022-11-30T03:44:56.040Z,7.39
2022-11-30T03:45:56.032Z,7.48
2022-11-30T03:46:56.026Z,7.52
2022-11-30T03:47:56.022Z,7.72
2022-11-30T03:48:56.043Z,7.69
2022-11-30T03:49:56.016Z,7.72
2022-11-30T03:50:56.015Z,7.60
2022-11-30T03:51:56.017Z,7.57
2022-11-30T03:52:56.006Z,7.74
2022-11-30T03:53:56.006Z,7.68
2022-11-30T03:54:55.994Z,7.71
2022-11-30T03:55:55.993Z,7.60
2022-11-30T03:56:55.983Z,7.60
2022-11-30T03:57:55.991Z,7.74
2022-11-30T03:58:55.980Z,7.68
2022-11-30T03:59:55.974Z,7.46
2022-11-30T04:00:55.968Z,7.45
2022-11-30T04:01:56.025Z,7.40
2022-11-30T04:02:55.993Z,7.46
2022-11-30T04:03:55.963Z,7.37
2022-11-30T04:04:55.969Z,7.39
2022-11-30T04:05:55.955Z,7.45
2022-11-30T04:06:55.945Z,7.49
2022-11-30T04:07:56.063Z,7.46
2022-11-30T04:08:55.935Z,7.32
2022-11-30T04:09:55.932Z,7.39
2022-11-30T04:10:55.925Z,7.30
2022-11-30T04:11:55.924Z,7.40
2022-11-30T04:12:55.916Z,7.43
2022-11-30T04:13:55.913Z,7.37
2022-11-30T04:14:55.905Z,7.48
2022-11-30T04:15:55.956Z,7.45
2022-11-30T04:16:55.895Z,7.48
2022-11-30T04:17:55.895Z,7.45
2022-11-30T04:18:55.888Z,7.49
2022-11-30T04:19:55.898Z,7.48
2022-11-30T04:20:55.907Z,7.39
2022-11-30T04:21:55.883Z,7.43
2022-11-30T04:22:55.871Z,7.35
2022-11-30T04:23:55.872Z,7.27
2022-11-30T04:24:55.866Z,7.32
2022-11-30T04:25:55.867Z,7.34
2022-11-30T04:26:55.857Z,7.30
2022-11-30T04:27:55.867Z,7.28
2022-11-30T04:28:55.852Z,7.30
2022-11-30T04:29:55.849Z,7.30
2022-11-30T04:30:55.928Z,7.28
2022-11-30T04:31:55.841Z,7.17
2022-11-30T04:32:55.833Z,7.34
2022-11-30T04:33:55.835Z,7.35
2022-11-30T04:34:55.834Z,7.30
2022-11-30T04:35:55.822Z,7.30
2022-11-30T04:37:00.078Z,7.40
2022-11-30T04:37:55.811Z,7.35
2022-11-30T04:38:55.805Z,7.42
2022-11-30T04:39:55.803Z,7.40
2022-11-30T04:40:55.799Z,7.32
2022-11-30T04:41:55.794Z,7.28
2022-11-30T04:42:55.795Z,7.39
2022-11-30T04:43:55.786Z,7.43
2022-11-30T04:44:55.779Z,7.28
2022-11-30T04:45:55.780Z,7.35
2022-11-30T04:46:55.815Z,7.34
2022-11-30T04:47:55.769Z,7.42
2022-11-30T04:48:55.768Z,7.43
2022-11-30T04:49:55.758Z,7.34
2022-11-30T04:50:55.753Z,7.39
2022-11-30T04:51:55.756Z,7.32
2022-11-30T04:52:55.770Z,7.30
2022-11-30T04:53:55.746Z,7.39
2022-11-30T04:54:55.733Z,7.30
2022-11-30T04:55:55.736Z,7.35
2022-11-30T04:56:55.725Z,7.28
2022-11-30T04:57:55.726Z,7.34
2022-11-30T04:58:55.722Z,7.28
2022-11-30T04:59:55.775Z,7.25
2022-11-30T05:00:55.708Z,7.13
2022-11-30T05:01:55.749Z,7.28
2022-11-30T05:02:55.700Z,7.20
2022-11-30T05:03:55.735Z,7.27
2022-11-30T05:04:55.692Z,7.23
2022-11-30T05:05:55.693Z,7.23
2022-11-30T05:06:55.685Z,7.25
2022-11-30T05:07:55.717Z,7.23
2022-11-30T05:08:55.703Z,7.32
2022-11-30T05:09:55.683Z,7.34
2022-11-30T05:10:55.671Z,7.25
2022-11-30T05:11:55.663Z,7.17
2022-11-30T05:12:55.661Z,7.09
2022-11-30T05:13:55.655Z,6.95
2022-11-30T05:14:55.651Z,7.20
2022-11-30T05:15:55.783Z,7.16
2022-11-30T05:16:55.643Z,7.35
2022-11-30T05:17:55.637Z,7.27
2022-11-30T05:18:55.633Z,7.23
2022-11-30T05:19:55.628Z,7.20
2022-11-30T05:20:55.623Z,7.23
2022-11-30T05:21:55.623Z,7.13
2022-11-30T05:22:55.614Z,7.23
2022-11-30T05:23:55.616Z,7.20
2022-11-30T05:24:55.626Z,7.31
2022-11-30T05:25:55.607Z,7.15
2022-11-30T05:26:55.593Z,7.23
2022-11-30T05:27:55.596Z,7.31
2022-11-30T05:28:55.589Z,7.37
2022-11-30T05:29:55.588Z,7.28
2022-11-30T05:30:55.581Z,7.25
2022-11-30T05:31:55.580Z,7.20
2022-11-30T05:32:55.571Z,7.23
2022-11-30T05:33:55.568Z,7.12
2022-11-30T05:34:55.918Z,7.13
2022-11-30T05:35:55.558Z,7.35
2022-11-30T05:36:55.554Z,7.35
2022-11-30T05:37:55.560Z,7.28
2022-11-30T05:38:55.541Z,7.37
2022-11-30T05:39:55.540Z,7.45
2022-11-30T05:40:55.559Z,7.35
2022-11-30T05:41:55.536Z,7.39
2022-11-30T05:42:55.533Z,7.45
2022-11-30T05:43:55.524Z,7.39
2022-11-30T05:44:55.518Z,7.39
2022-11-30T05:45:55.519Z,7.39
2022-11-30T05:46:55.547Z,7.37
2022-11-30T05:47:55.508Z,7.28
2022-11-30T05:48:55.501Z,7.43
2022-11-30T05:49:55.500Z,7.42
2022-11-30T05:50:55.489Z,7.45
2022-11-30T05:51:55.515Z,7.48
2022-11-30T05:52:55.484Z,7.48
2022-11-30T05:53:55.481Z,7.32
2022-11-30T05:54:55.475Z,7.32
2022-11-30T05:55:55.477Z,7.35
2022-11-30T05:56:55.559Z,7.34
2022-11-30T05:57:55.465Z,7.35
2022-11-30T05:58:55.459Z,7.35
2022-11-30T05:59:55.458Z,7.48
2022-11-30T06:00:55.452Z,7.39
2022-11-30T06:01:55.572Z,7.35
2022-11-30T06:02:55.598Z,7.28
2022-11-30T06:03:55.437Z,7.37
2022-11-30T06:04:55.429Z,7.35
2022-11-30T06:05:55.434Z,7.40
2022-11-30T06:06:55.465Z,7.42
2022-11-30T06:07:55.473Z,7.35
2022-11-30T06:08:55.413Z,7.42
2022-11-30T06:09:55.410Z,7.46
2022-11-30T06:10:55.404Z,7.55
2022-11-30T06:11:55.403Z,7.46
2022-11-30T06:12:55.417Z,7.37
2022-11-30T06:13:55.396Z,7.27
2022-11-30T06:14:55.388Z,7.21
2022-11-30T06:15:55.386Z,7.35
2022-11-30T06:16:55.375Z,7.40
2022-11-30T06:17:55.378Z,7.32
2022-11-30T06:18:55.377Z,7.42
2022-11-30T06:19:55.368Z,7.39
2022-11-30T06:20:55.362Z,7.40
2022-11-30T06:21:55.362Z,7.40
2022-11-30T06:22:55.350Z,7.42
2022-11-30T06:23:55.353Z,7.42
2022-11-30T06:24:55.344Z,7.45
2022-11-30T06:25:55.340Z,7.52
2022-11-30T06:26:55.332Z,7.48
2022-11-30T06:27:55.343Z,7.39
2022-11-30T06:28:55.353Z,7.28
2022-11-30T06:29:55.328Z,7.39
2022-11-30T06:30:55.321Z,7.37
2022-11-30T06:31:55.397Z,7.45
2022-11-30T06:32:55.309Z,7.49
2022-11-30T06:33:55.305Z,7.46
2022-11-30T06:34:55.301Z,7.42
2022-11-30T06:35:55.300Z,7.50
2022-11-30T06:36:55.293Z,7.27
2022-11-30T06:37:55.294Z,7.31
2022-11-30T06:38:55.284Z,7.31
2022-11-30T06:40:06.650Z,7.43
2022-11-30T06:40:55.274Z,7.48
2022-11-30T06:41:55.275Z,7.46
2022-11-30T06:42:55.272Z,7.40
2022-11-30T06:43:55.265Z,7.34
2022-11-30T06:44:55.278Z,7.35
2022-11-30T06:45:55.349Z,7.49
2022-11-30T06:46:55.250Z,7.45
2022-11-30T06:47:55.254Z,7.32
2022-11-30T06:48:55.237Z,7.48
2022-11-30T06:49:55.240Z,7.45
2022-11-30T06:50:55.235Z,7.48
2022-11-30T06:51:55.233Z,7.45
2022-11-30T06:52:55.223Z,7.50
2022-11-30T06:53:55.221Z,7.40
2022-11-30T06:54:55.215Z,7.45
2022-11-30T06:55:55.215Z,7.43
2022-11-30T06:56:55.205Z,7.45
2022-11-30T06:57:55.206Z,7.48
2022-11-30T06:58:55.204Z,7.34
2022-11-30T06:59:55.197Z,7.39
2022-11-30T07:00:55.305Z,7.28
2022-11-30T07:01:55.186Z,7.37
2022-11-30T07:02:55.180Z,7.39
2022-11-30T07:03:55.222Z,7.40
2022-11-30T07:04:55.170Z,7.46
2022-11-30T07:05:55.170Z,7.45
2022-11-30T07:06:55.175Z,7.43
2022-11-30T07:07:55.189Z,7.52
2022-11-30T07:08:55.152Z,7.49
2022-11-30T07:09:55.154Z,7.46
2022-11-30T07:10:55.145Z,7.45
2022-11-30T07:11:55.147Z,7.34
2022-11-30T07:12:55.140Z,7.35
2022-11-30T07:13:55.134Z,7.50
2022-11-30T07:14:55.129Z,7.48
2022-11-30T07:15:55.131Z,7.43
2022-11-30T07:16:55.226Z,7.42
2022-11-30T07:17:55.121Z,7.46
2022-11-30T07:18:55.113Z,7.40
2022-11-30T07:19:55.112Z,7.49
2022-11-30T07:20:55.109Z,7.48
2022-11-30T07:21:55.106Z,7.34
2022-11-30T07:22:55.097Z,7.42
2022-11-30T07:23:56.970Z,7.31
2022-11-30T07:24:55.086Z,7.30
2022-11-30T07:25:55.086Z,7.39
2022-11-30T07:26:55.078Z,7.48
2022-11-30T07:27:55.081Z,7.52
2022-11-30T07:28:55.457Z,7.35
2022-11-30T07:29:55.069Z,7.35
2022-11-30T07:30:55.060Z,7.48
2022-11-30T07:31:55.098Z,7.46
2022-11-30T07:32:55.072Z,7.48
2022-11-30T07:33:55.060Z,7.58
2022-11-30T07:34:55.045Z,7.52
2022-11-30T07:35:55.041Z,7.52
2022-11-30T07:36:55.038Z,7.46
2022-11-30T07:37:55.036Z,7.43
2022-11-30T07:38:55.025Z,7.48
2022-11-30T07:39:55.024Z,7.50
2022-11-30T07:40:55.018Z,7.40
2022-11-30T07:41:55.021Z,7.42
2022-11-30T07:42:55.010Z,7.49
2022-11-30T07:43:55.007Z,7.45
2022-11-30T07:44:58.647Z,7.53
2022-11-30T07:45:55.077Z,7.49
2022-11-30T07:46:54.992Z,7.52
2022-11-30T07:47:54.991Z,7.48
2022-11-30T07:48:55.009Z,7.58
2022-11-30T07:49:54.986Z,7.46
2022-11-30T07:50:54.976Z,7.40
2022-11-30T07:51:54.988Z,7.43
2022-11-30T07:52:54.968Z,7.39
2022-11-30T07:53:54.976Z,7.28
2022-11-30T07:54:54.962Z,7.40
2022-11-30T07:55:56.950Z,7.35
2022-11-30T07:56:54.952Z,7.45
2022-11-30T07:57:54.953Z,7.46
2022-11-30T07:58:54.942Z,7.52
2022-11-30T07:59:54.943Z,7.53
2022-11-30T08:00:55.168Z,7.43
2022-11-30T08:01:55.021Z,7.50
2022-11-30T08:02:54.925Z,7.46
2022-11-30T08:03:54.924Z,7.58
2022-11-30T08:04:55.039Z,7.61
2022-11-30T08:05:54.918Z,7.50
2022-11-30T08:06:54.913Z,7.61
2022-11-30T08:07:54.966Z,7.77
2022-11-30T08:08:54.914Z,7.80
2022-11-30T08:09:54.898Z,7.86
2022-11-30T08:10:54.894Z,7.92
2022-11-30T08:11:54.887Z,7.83
2022-11-30T08:12:54.889Z,7.80
2022-11-30T08:13:54.886Z,7.67
2022-11-30T08:15:19.259Z,7.48
2022-11-30T08:15:54.873Z,7.45
2022-11-30T08:16:54.948Z,7.46
2022-11-30T08:17:54.867Z,7.50
2022-11-30T08:18:54.866Z,7.71
2022-11-30T08:19:54.860Z,7.72
2022-11-30T08:20:54.881Z,7.68
2022-11-30T08:21:54.849Z,7.82
2022-11-30T08:22:54.852Z,7.77
2022-11-30T08:23:54.880Z,7.72
2022-11-30T08:24:54.841Z,7.72
2022-11-30T08:25:54.831Z,7.75
2022-11-30T08:26:54.830Z,7.85
2022-11-30T08:27:54.823Z,7.86
2022-11-30T08:28:54.873Z,7.83
2022-11-30T08:29:54.814Z,7.90
2022-11-30T08:30:54.863Z,7.75
2022-11-30T08:31:54.813Z,7.77
2022-11-30T08:32:54.802Z,7.80
2022-11-30T08:33:54.802Z,7.77
2022-11-30T08:34:54.798Z,7.86
2022-11-30T08:35:54.791Z,7.72
2022-11-30T08:36:54.808Z,7.87
2022-11-30T08:37:54.783Z,7.92
2022-11-30T08:38:54.784Z,7.87
2022-11-30T08:39:54.774Z,7.95
2022-11-30T08:40:54.772Z,7.80
2022-11-30T08:41:54.774Z,7.98
2022-11-30T08:42:54.770Z,7.92
2022-11-30T08:43:54.757Z,8.01
2022-11-30T08:44:54.755Z,7.98
2022-11-30T08:45:57.383Z,7.74
2022-11-30T08:46:54.839Z,7.87
2022-11-30T08:47:54.740Z,7.98
2022-11-30T08:49:12.507Z,8.00
2022-11-30T08:49:54.735Z,7.97
2022-11-30T08:50:54.730Z,8.00
2022-11-30T08:52:54.745Z,8.01
2022-11-30T08:53:54.718Z,8.08
2022-11-30T08:54:55.292Z,8.00
2022-11-30T08:55:54.712Z,8.07
2022-11-30T08:56:54.710Z,8.12
2022-11-30T08:57:54.707Z,8.11
2022-11-30T08:58:54.707Z,8.08
2022-11-30T08:59:54.696Z,8.04
2022-11-30T09:00:54.696Z,8.11
2022-11-30T09:01:54.688Z,8.01
2022-11-30T09:02:54.752Z,8.10
2022-11-30T09:03:54.678Z,8.10
2022-11-30T09:04:54.676Z,8.18
2022-11-30T09:05:54.673Z,8.26
2022-11-30T09:06:54.670Z,8.28
2022-11-30T09:07:54.763Z,8.22
2022-11-30T09:08:54.684Z,8.28
2022-11-30T09:09:54.662Z,8.43
2022-11-30T09:10:54.653Z,8.40
2022-11-30T09:11:54.646Z,8.36
2022-11-30T09:12:54.649Z,8.41
2022-11-30T09:13:54.637Z,8.45
2022-11-30T09:14:58.355Z,8.38
2022-11-30T09:15:54.677Z,8.34
2022-11-30T09:16:54.629Z,8.25
2022-11-30T09:17:54.621Z,8.28
2022-11-30T09:18:54.628Z,8.25
2022-11-30T09:19:54.614Z,8.28
2022-11-30T09:20:54.613Z,8.22
2022-11-30T09:21:54.609Z,8.40
2022-11-30T09:22:54.606Z,8.38
2022-11-30T09:23:54.600Z,8.30
2022-11-30T09:24:54.616Z,8.37
2022-11-30T09:25:54.596Z,8.55
2022-11-30T09:26:54.599Z,8.53
2022-11-30T09:27:54.587Z,8.71
2022-11-30T09:28:54.647Z,8.66
2022-11-30T09:29:54.583Z,8.50
2022-11-30T09:30:54.675Z,8.43
2022-11-30T09:31:54.573Z,8.41
2022-11-30T09:32:54.571Z,8.41
2022-11-30T09:33:54.567Z,8.50
2022-11-30T09:34:54.573Z,8.43
2022-11-30T09:35:54.560Z,8.40
2022-11-30T09:36:54.567Z,8.36
2022-11-30T09:37:54.552Z,8.45
2022-11-30T09:38:54.553Z,8.48
2022-11-30T09:39:54.543Z,8.52
2022-11-30T09:40:54.568Z,8.36
2022-11-30T09:41:54.533Z,8.29
2022-11-30T09:42:54.538Z,8.41
2022-11-30T09:43:54.532Z,8.34
2022-11-30T09:44:54.531Z,8.59
2022-11-30T09:45:54.554Z,8.58
2022-11-30T09:46:54.519Z,8.56
2022-11-30T09:47:54.514Z,8.71
2022-11-30T09:48:54.524Z,8.84
2022-11-30T09:49:54.508Z,8.61
2022-11-30T09:50:54.510Z,8.65
2022-11-30T09:51:54.497Z,8.62
2022-11-30T09:52:54.501Z,8.62
2022-11-30T09:53:54.497Z,8.59
2022-11-30T09:54:54.493Z,8.66
2022-11-30T09:55:54.486Z,8.74
2022-11-30T09:56:54.513Z,8.76
2022-11-30T09:57:54.480Z,8.79
2022-11-30T09:58:54.483Z,8.89
2022-11-30T09:59:54.470Z,8.83
2022-11-30T10:00:54.472Z,9.04
2022-11-30T10:01:57.156Z,9.04
2022-11-30T10:02:54.635Z,9.08
2022-11-30T10:03:54.458Z,8.91
2022-11-30T10:04:54.458Z,8.84
2022-11-30T10:05:54.454Z,8.84
2022-11-30T10:06:54.453Z,8.91
2022-11-30T10:07:54.484Z,8.74
2022-11-30T10:08:54.440Z,8.61
2022-11-30T10:10:30.999Z,8.62
2022-11-30T10:10:54.441Z,8.62
2022-11-30T10:11:54.431Z,8.73
2022-11-30T10:12:54.612Z,8.87
2022-11-30T10:13:54.421Z,8.77
2022-11-30T10:14:59.860Z,8.74
2022-11-30T10:15:54.568Z,8.73
2022-11-30T10:16:54.415Z,8.79
2022-11-30T10:17:54.409Z,8.80
2022-11-30T10:18:54.410Z,8.80
2022-11-30T10:19:54.404Z,8.84
2022-11-30T10:20:54.404Z,8.74
2022-11-30T10:21:54.395Z,8.80
2022-11-30T10:22:54.408Z,9.02
2022-11-30T10:23:54.388Z,9.08
2022-11-30T10:24:54.390Z,9.20
2022-11-30T10:25:54.379Z,9.33
2022-11-30T10:26:54.380Z,9.35
2022-11-30T10:27:54.390Z,9.31
2022-11-30T10:28:54.461Z,9.35
2022-11-30T10:29:54.371Z,9.42
2022-11-30T10:30:54.431Z,9.35
2022-11-30T10:31:54.370Z,9.46
2022-11-30T10:32:54.363Z,9.46
2022-11-30T10:33:54.366Z,9.38
2022-11-30T10:34:54.358Z,9.08
2022-11-30T10:35:54.354Z,9.17
2022-11-30T10:36:54.349Z,8.96
2022-11-30T10:37:54.347Z,9.05
2022-11-30T10:38:54.360Z,9.23
2022-11-30T10:39:54.343Z,9.18
2022-11-30T10:40:54.337Z,9.29
2022-11-30T10:41:54.332Z,9.32
2022-11-30T10:42:54.335Z,9.40
2022-11-30T10:43:54.335Z,9.31
2022-11-30T10:44:54.349Z,9.43
2022-11-30T10:45:54.364Z,9.39
2022-11-30T10:46:54.351Z,9.54
2022-11-30T10:47:54.314Z,9.51
2022-11-30T10:48:54.311Z,9.53
2022-11-30T10:49:54.312Z,9.51
2022-11-30T10:50:54.315Z,9.65
2022-11-30T10:51:54.302Z,9.57
2022-11-30T10:52:54.301Z,9.46
2022-11-30T10:53:54.301Z,9.60
2022-11-30T10:54:56.876Z,9.51
2022-11-30T10:55:54.292Z,9.40
2022-11-30T10:56:54.288Z,9.64
2022-11-30T10:57:54.283Z,9.53
2022-11-30T10:58:54.294Z,9.42
2022-11-30T10:59:54.276Z,9.48
2022-11-30T11:00:54.318Z,9.42
2022-11-30T11:01:54.303Z,9.50
2022-11-30T11:02:54.346Z,9.56
2022-11-30T11:03:54.333Z,9.64
2022-11-30T11:04:54.265Z,9.50
2022-11-30T11:05:54.259Z,9.53
2022-11-30T11:06:54.316Z,9.76
2022-11-30T11:07:54.350Z,9.69
2022-11-30T11:08:54.248Z,9.69
2022-11-30T11:09:54.255Z,9.69
2022-11-30T11:10:54.245Z,9.65
2022-11-30T11:11:54.241Z,9.64
2022-11-30T11:12:54.241Z,9.65
2022-11-30T11:13:54.233Z,9.64
2022-11-30T11:14:54.237Z,9.54
2022-11-30T11:15:54.266Z,9.83
2022-11-30T11:16:54.249Z,9.74
2022-11-30T11:17:54.243Z,9.84
2022-11-30T11:18:54.227Z,9.84
2022-11-30T11:19:54.219Z,9.90
2022-11-30T11:20:55.862Z,9.75
2022-11-30T11:21:54.209Z,9.84
2022-11-30T11:22:54.212Z,9.89
2022-11-30T11:23:54.214Z,9.74
2022-11-30T11:24:54.206Z,9.61
2022-11-30T11:25:54.198Z,9.68
2022-11-30T11:26:54.204Z,9.78
2022-11-30T11:27:54.207Z,9.86
2022-11-30T11:28:54.195Z,9.89
2022-11-30T11:29:54.186Z,10.07
2022-11-30T11:30:54.242Z,9.83
2022-11-30T11:31:54.183Z,9.66
2022-11-30T11:32:54.208Z,9.64
2022-11-30T11:33:54.187Z,9.46
2022-11-30T11:34:54.181Z,9.36
2022-11-30T11:35:54.173Z,9.51
2022-11-30T11:36:54.177Z,9.54
2022-11-30T11:37:54.173Z,9.53
2022-11-30T11:38:54.171Z,9.36
2022-11-30T11:39:54.162Z,9.50
2022-11-30T11:40:54.160Z,9.54
2022-11-30T11:41:54.154Z,9.60
2022-11-30T11:42:54.164Z,9.60
2022-11-30T11:43:54.149Z,9.47
2022-11-30T11:44:54.154Z,9.60
2022-11-30T11:45:54.146Z,9.58
2022-11-30T11:46:54.213Z,9.43
2022-11-30T11:47:54.141Z,9.50
2022-11-30T11:48:54.174Z,9.54
2022-11-30T11:49:54.152Z,9.79
2022-11-30T11:51:09.571Z,9.84
2022-11-30T11:51:54.127Z,9.93
2022-11-30T11:52:54.131Z,9.89
2022-11-30T11:53:54.386Z,9.79
2022-11-30T11:54:54.124Z,9.83
2022-11-30T11:55:54.116Z,9.69
2022-11-30T11:56:54.115Z,9.79
2022-11-30T11:57:54.117Z,9.79
2022-11-30T11:58:54.112Z,9.76
2022-11-30T11:59:54.107Z,9.81
2022-11-30T12:01:05.775Z,9.79
2022-11-30T12:01:54.123Z,9.75
2022-11-30T12:02:54.146Z,9.53
2022-11-30T12:03:54.138Z,9.71
2022-11-30T12:04:54.117Z,9.54
2022-11-30T12:05:54.091Z,9.58
2022-11-30T12:06:54.102Z,9.68
2022-11-30T12:07:54.151Z,9.72
2022-11-30T12:08:54.088Z,9.60
2022-11-30T12:09:54.075Z,9.46
2022-11-30T12:10:54.410Z,9.46
2022-11-30T12:11:54.070Z,9.58
2022-11-30T12:12:55.106Z,9.69
2022-11-30T12:13:54.069Z,9.60
2022-11-30T12:14:54.065Z,9.69
2022-11-30T12:15:54.139Z,9.76
2022-11-30T12:16:54.068Z,9.65
2022-11-30T12:17:54.054Z,9.47
2022-11-30T12:18:54.060Z,9.64
2022-11-30T12:19:54.059Z,9.66
2022-11-30T12:20:54.075Z,9.50
2022-11-30T12:21:54.046Z,9.40
2022-11-30T12:22:54.057Z,9.48
2022-11-30T12:23:54.045Z,9.51
2022-11-30T12:24:54.050Z,9.60
2022-11-30T12:25:54.038Z,9.50
2022-11-30T12:26:54.036Z,9.17
2022-11-30T12:27:54.476Z,9.31
2022-11-30T12:28:54.026Z,9.20
2022-11-30T12:29:54.026Z,9.18
2022-11-30T12:30:54.094Z,9.14
2022-11-30T12:31:54.030Z,9.21
2022-11-30T12:32:54.013Z,9.20
2022-11-30T12:33:54.021Z,9.15
2022-11-30T12:34:54.014Z,9.05
2022-11-30T12:35:54.151Z,9.10
2022-11-30T12:36:54.024Z,9.05
2022-11-30T12:37:54.005Z,9.11
2022-11-30T12:38:53.996Z,9.21
2022-11-30T12:39:54.000Z,9.14
2022-11-30T12:40:53.989Z,9.02
2022-11-30T12:41:53.994Z,8.98
2022-11-30T12:42:53.988Z,8.73
2022-11-30T12:43:53.988Z,8.74
2022-11-30T12:44:53.979Z,8.71
2022-11-30T12:45:54.002Z,8.76
2022-11-30T12:46:54.058Z,8.68
2022-11-30T12:47:53.980Z,8.68
2022-11-30T12:48:53.996Z,8.68
2022-11-30T12:49:53.975Z,8.84
2022-11-30T12:50:53.964Z,9.02
2022-11-30T12:51:53.965Z,9.05
2022-11-30T12:52:53.981Z,8.86
2022-11-30T12:53:53.957Z,8.89
2022-11-30T12:54:53.946Z,8.79
2022-11-30T12:55:53.952Z,8.62
2022-11-30T12:56:53.951Z,8.77
2022-11-30T12:57:53.945Z,8.80
2022-11-30T12:58:53.939Z,8.63
2022-11-30T12:59:53.955Z,8.86
2022-11-30T13:00:54.043Z,8.71
2022-11-30T13:01:53.943Z,8.68
2022-11-30T13:02:53.926Z,8.73
2022-11-30T13:03:53.927Z,8.71
2022-11-30T13:04:58.202Z,8.62
2022-11-30T13:05:53.919Z,8.71
2022-11-30T13:06:53.915Z,8.36
2022-11-30T13:07:53.960Z,8.53
2022-11-30T13:08:53.940Z,8.56
2022-11-30T13:09:53.909Z,8.63
2022-11-30T13:10:53.902Z,8.68
2022-11-30T13:11:53.905Z,8.65
2022-11-30T13:12:53.893Z,8.37
2022-11-30T13:13:53.895Z,8.19
2022-11-30T13:14:53.894Z,8.28
2022-11-30T13:15:53.920Z,8.07
2022-11-30T13:16:53.884Z,7.92
2022-11-30T13:17:53.879Z,8.02
2022-11-30T13:18:53.881Z,7.86
2022-11-30T13:19:53.876Z,7.89